This is the latest recevied weather packets stored in our database for station/object WC0AA-WX. If no packets are shown the sender has not sent any weather packets the latest 10 day(s).
| Time | Temp. | Humidity | Pressure | Rain* | Wind** | Luminosity | Snow |
|---|---|---|---|---|---|---|---|
| 1787473793 | 16.67° C | 100% | 1020.4 hPa | 0 mm | - | - | - |
| 1787473193 | 16.11° C | 100% | 1020.3 hPa | 0 mm | - | - | - |
| 1787471993 | 15.56° C | 100% | 1020.4 hPa | 0 mm | - | - | - |
| 1787467192 | 16.67° C | 100% | 1020.5 hPa | 0 mm | - | - | - |
| 1787462962 | 17.22° C | 100% | 1020.2 hPa | 0 mm | - | - | - |
| 1787443275 | 26.67° C | 65% | 1019.1 hPa | 0 mm | - | - | - |
| 1787441476 | 27.22° C | 65% | 1019.2 hPa | 0 mm | - | - | - |
| 1787413751 | 21.11° C | 92% | 1021.1 hPa | 0 mm | - | - | - |
| 1787411921 | 21.11° C | 92% | 1021 hPa | 0 mm | - | - | - |
| 1787410721 | 21.11° C | 97% | 1020.9 hPa | 0 mm | - | - | - |
| 1787409521 | 20° C | 100% | 1021.1 hPa | 0 mm | - | - | - |
| 1787407121 | 18.33° C | 100% | 1021.1 hPa | 0 mm | - | - | - |
| 1787406521 | 18.33° C | 100% | 1021 hPa | 0.25 mm | - | - | - |
| 1787404127 | 18.89° C | 100% | 1020.7 hPa | 1.52 mm | - | - | - |
| 1787403521 | 18.33° C | 100% | 1021.2 hPa | 3.81 mm | - | - | - |
| 1787402920 | 18.89° C | 100% | 1022 hPa | 9.91 mm | - | - | - |
| 1787396293 | 19.44° C | 100% | 1018.2 hPa | 0 mm | - | - | - |
| 1787391429 | 19.44° C | 100% | 1017.6 hPa | 0 mm | - | - | - |
| 1787390918 | 19.44° C | 100% | 1017.6 hPa | 0 mm | - | - | - |
| 1787390828 | 19.44° C | 100% | 1017.6 hPa | 0 mm | - | - | - |
| 1787389630 | 19.44° C | 100% | 1017.7 hPa | 0 mm | - | - | - |
| 1787389029 | 19.44° C | 100% | 1017.6 hPa | 0 mm | - | - | - |
| 1787387827 | 20° C | 100% | 1017.4 hPa | 0 mm | - | - | - |
| 1787386028 | 20.56° C | 100% | 1017.8 hPa | 0 mm | - | - | - |
| 1787385427 | 20.56° C | 100% | 1017.9 hPa | 0 mm | - | - | - |
* Rain latest hour (hover to see other rain measurements)
** Current wind speed in m/s (hover to see current wind gust speed)